createdAt,value
2022-09-01T00:00:06.525Z,0.30
2022-09-01T00:02:34.434Z,0.50
2022-09-01T00:05:02.489Z,0.30
2022-09-01T00:07:32.203Z,0.40
2022-09-01T00:10:00.434Z,0.40
2022-09-01T00:12:29.204Z,0.55
2022-09-01T00:14:56.986Z,0.30
2022-09-01T00:17:25.244Z,0.30
2022-09-01T00:19:52.684Z,0.52
2022-09-01T00:22:20.171Z,0.40
2022-09-01T00:24:50.214Z,0.40
2022-09-01T00:27:17.638Z,0.40
2022-09-01T00:29:45.272Z,0.30
2022-09-01T00:32:12.908Z,0.30
2022-09-01T00:34:40.362Z,0.47
2022-09-01T00:37:10.038Z,0.30
2022-09-01T00:39:37.299Z,0.43
2022-09-01T00:42:06.346Z,0.30
2022-09-01T00:44:36.518Z,0.20
2022-09-01T00:47:07.172Z,0.28
2022-09-01T00:49:40.733Z,0.20
2022-09-01T00:52:12.690Z,0.20
2022-09-01T00:54:45.096Z,0.10
2022-09-01T00:57:16.120Z,0.10
2022-09-01T00:59:50.717Z,0.10
2022-09-01T01:02:18.153Z,0.10
2022-09-01T01:04:46.416Z,0.13
2022-09-01T01:07:14.755Z,0.10
2022-09-01T01:09:45.455Z,0.20
2022-09-01T01:12:18.503Z,0.15
2022-09-01T01:14:50.805Z,0.20
2022-09-01T01:17:21.679Z,0.10
2022-09-01T01:20:10.449Z,0.20
2022-09-01T01:23:05.172Z,0.20
2022-09-01T01:25:39.769Z,0.20
2022-09-01T01:28:11.532Z,0.20
2022-09-01T01:30:45.059Z,0.40
2022-09-01T01:33:12.443Z,0.20
2022-09-01T01:35:42.049Z,0.35
2022-09-01T01:38:09.532Z,0.32
2022-09-01T01:40:53.979Z,0.20
2022-09-01T01:43:23.264Z,0.20
2022-09-01T01:45:53.338Z,0.30
2022-09-01T01:48:24.685Z,0.22
2022-09-01T01:50:53.886Z,0.17
2022-09-01T01:53:22.292Z,0.33
2022-09-01T01:55:51.718Z,0.40
2022-09-01T01:58:20.927Z,0.20
2022-09-01T02:00:49.572Z,0.25
2022-09-01T02:03:20.013Z,0.20
2022-09-01T02:05:49.227Z,0.60
2022-09-01T02:08:21.131Z,0.28
2022-09-01T02:10:51.885Z,0.20
2022-09-01T02:13:26.623Z,0.30
2022-09-01T02:15:57.923Z,0.50
2022-09-01T02:18:28.634Z,0.43
2022-09-01T02:20:59.218Z,0.20
2022-09-01T02:23:26.891Z,0.20
2022-09-01T02:26:17.462Z,0.40
2022-09-01T02:28:55.729Z,0.30
2022-09-01T02:31:29.773Z,0.40
2022-09-01T02:34:01.269Z,0.40
2022-09-01T02:36:32.915Z,0.45
2022-09-01T02:39:01.396Z,0.30
2022-09-01T02:41:32.455Z,0.30
2022-09-01T02:44:02.554Z,0.38
2022-09-01T02:46:30.799Z,0.30
2022-09-01T02:49:00.756Z,0.30
2022-09-01T02:53:55.697Z,0.30
2022-09-01T02:56:25.949Z,0.20
2022-09-01T02:58:56.325Z,0.40
2022-09-01T03:01:28.806Z,0.35
2022-09-01T03:03:58.775Z,0.25
2022-09-01T03:06:26.936Z,0.40
2022-09-01T03:08:58.050Z,0.20
2022-09-01T03:11:25.493Z,0.20
2022-09-01T03:13:54.141Z,0.30
2022-09-01T03:16:23.107Z,0.30
2022-09-01T03:18:51.813Z,0.40
2022-09-01T03:21:19.594Z,0.30
2022-09-01T03:23:48.263Z,0.38
2022-09-01T03:26:18.864Z,0.20
2022-09-01T03:28:47.150Z,0.20
2022-09-01T03:31:15.615Z,0.20
2022-09-01T03:33:44.715Z,0.30
2022-09-01T03:36:20.606Z,0.22
2022-09-01T03:38:49.759Z,0.25
2022-09-01T03:41:21.794Z,0.22
2022-09-01T03:43:50.146Z,0.30
2022-09-01T03:46:24.602Z,0.20
2022-09-01T03:48:58.736Z,0.20
2022-09-01T03:51:27.296Z,0.30
2022-09-01T03:53:56.981Z,0.30
2022-09-01T03:56:27.574Z,0.30
2022-09-01T03:58:57.837Z,0.30
2022-09-01T04:01:27.977Z,0.40
2022-09-01T04:03:58.097Z,0.43
2022-09-01T04:06:31.176Z,0.35
2022-09-01T04:09:03.245Z,0.30
2022-09-01T04:11:35.268Z,0.20
2022-09-01T04:14:02.731Z,0.40
2022-09-01T04:16:53.432Z,0.40
2022-09-01T04:19:27.798Z,0.40
2022-09-01T04:22:00.505Z,0.30
2022-09-01T04:24:36.324Z,0.57
2022-09-01T04:29:36.214Z,0.32
2022-09-01T04:32:09.950Z,0.40
2022-09-01T04:34:42.353Z,0.30
2022-09-01T04:37:15.176Z,0.30
2022-09-01T04:39:54.819Z,0.40
2022-09-01T04:44:54.806Z,0.40
2022-09-01T04:47:35.446Z,0.32
2022-09-01T04:50:17.933Z,0.47
2022-09-01T04:53:06.985Z,0.50
2022-09-01T04:55:49.749Z,0.30
2022-09-01T04:58:19.327Z,0.30
2022-09-01T05:00:48.441Z,0.40
2022-09-01T05:03:21.715Z,0.70
2022-09-01T05:06:21.006Z,0.28
2022-09-01T05:08:52.754Z,0.30
2022-09-01T05:11:44.850Z,0.32
2022-09-01T05:14:21.615Z,0.45
2022-09-01T05:16:50.128Z,0.40
2022-09-01T05:19:20.957Z,0.30
2022-09-01T05:21:57.294Z,0.40
2022-09-01T05:24:30.468Z,0.40
2022-09-01T05:27:01.237Z,0.30
2022-09-01T05:29:29.795Z,0.38
2022-09-01T05:31:59.119Z,0.40
2022-09-01T05:34:27.238Z,0.20
2022-09-01T05:36:59.778Z,0.22
2022-09-01T05:39:28.751Z,0.45
2022-09-01T05:41:58.933Z,0.88
2022-09-01T05:44:26.755Z,0.60
2022-09-01T05:47:00.242Z,0.90
2022-09-01T05:49:31.661Z,0.70
2022-09-01T05:52:00.869Z,0.63
2022-09-01T05:54:30.784Z,0.30
2022-09-01T05:57:12.845Z,0.50
2022-09-01T05:59:53.949Z,0.30
2022-09-01T06:02:27.308Z,0.40
2022-09-01T06:04:57.607Z,0.25
2022-09-01T06:07:32.714Z,0.30
2022-09-01T06:10:01.827Z,0.38
2022-09-01T06:12:30.951Z,0.40
2022-09-01T06:14:59.272Z,0.43
2022-09-01T06:17:29.204Z,0.25
2022-09-01T06:20:01.011Z,0.50
2022-09-01T06:22:34.357Z,0.32
2022-09-01T06:25:03.123Z,0.75
2022-09-01T06:27:44.586Z,0.30
2022-09-01T06:30:23.115Z,0.50
2022-09-01T06:33:09.510Z,0.77
2022-09-01T06:35:39.205Z,0.60
2022-09-01T06:38:08.924Z,0.50
2022-09-01T06:40:45.442Z,0.57
2022-09-01T06:43:16.303Z,0.80
2022-09-01T06:45:54.626Z,0.70
2022-09-01T06:48:26.869Z,0.30
2022-09-01T06:51:21.777Z,0.20
2022-09-01T06:53:57.305Z,0.40
2022-09-01T06:56:33.148Z,0.45
2022-09-01T06:59:04.338Z,0.50
2022-09-01T07:01:32.779Z,0.68
2022-09-01T07:04:01.733Z,1.00
2022-09-01T07:10:18.110Z,0.50
2022-09-01T07:13:07.360Z,0.32
2022-09-01T07:18:31.112Z,0.50
2022-09-01T07:21:35.714Z,0.45
2022-09-01T07:24:05.843Z,0.50
2022-09-01T07:26:47.695Z,0.28
2022-09-01T07:29:17.608Z,0.30
2022-09-01T07:31:49.377Z,0.63
2022-09-01T07:39:56.165Z,0.70
2022-09-01T07:51:42.150Z,0.70
2022-09-01T07:54:14.081Z,0.47
2022-09-01T07:56:42.775Z,0.65
2022-09-01T07:59:15.338Z,0.60
2022-09-01T08:02:09.096Z,0.70
2022-09-01T08:04:40.229Z,0.40
2022-09-01T08:07:15.476Z,0.68
2022-09-01T08:09:44.448Z,0.60
2022-09-01T08:12:13.552Z,0.50
2022-09-01T08:17:57.796Z,0.65
2022-09-01T08:20:28.613Z,0.73
2022-09-01T08:23:00.542Z,0.35
2022-09-01T08:25:34.017Z,0.70
2022-09-01T08:28:02.221Z,0.73
2022-09-01T08:30:35.764Z,1.10
2022-09-01T08:33:11.436Z,0.50
2022-09-01T08:35:46.165Z,0.40
2022-09-01T08:38:14.631Z,0.68
2022-09-01T08:40:51.557Z,0.50
2022-09-01T08:43:33.319Z,0.70
2022-09-01T08:46:12.971Z,0.50
2022-09-01T08:51:50.402Z,0.38
2022-09-01T08:54:29.938Z,0.60
2022-09-01T08:57:07.103Z,0.30
2022-09-01T08:59:54.615Z,0.40
2022-09-01T09:02:46.882Z,0.43
2022-09-01T09:05:35.656Z,0.45
2022-09-01T09:08:21.345Z,0.30
2022-09-01T09:10:59.021Z,0.20
2022-09-01T09:13:36.862Z,0.38
2022-09-01T09:16:08.758Z,0.55
2022-09-01T09:18:54.619Z,0.70
2022-09-01T09:21:27.035Z,0.30
2022-09-01T09:24:00.124Z,0.40
2022-09-01T09:26:27.436Z,0.20
2022-09-01T09:28:55.263Z,0.32
2022-09-01T09:31:28.672Z,0.40
2022-09-01T09:33:58.370Z,0.38
2022-09-01T09:36:31.780Z,0.80
2022-09-01T09:39:09.472Z,0.50
2022-09-01T09:41:37.411Z,1.00
2022-09-01T09:44:16.498Z,0.30
2022-09-01T09:46:45.986Z,0.30
2022-09-01T09:49:34.699Z,0.43
2022-09-01T09:52:17.313Z,0.30
2022-09-01T09:55:00.873Z,0.30
2022-09-01T09:57:31.045Z,0.40
2022-09-01T10:00:06.042Z,0.30
2022-09-01T10:02:42.513Z,0.10
2022-09-01T10:05:35.388Z,0.40
2022-09-01T10:08:04.409Z,0.28
2022-09-01T10:10:40.666Z,0.30
2022-09-01T10:13:13.873Z,0.43
2022-09-01T10:15:44.455Z,0.38
2022-09-01T10:18:21.894Z,0.40
2022-09-01T10:21:00.995Z,0.30
2022-09-01T10:23:31.622Z,0.38
2022-09-01T10:26:06.051Z,0.50
2022-09-01T10:28:41.406Z,0.90
2022-09-01T10:31:18.165Z,1.10
2022-09-01T10:33:46.126Z,0.65
2022-09-01T10:36:16.092Z,0.85
2022-09-01T10:38:49.846Z,0.40
2022-09-01T10:42:00.065Z,0.50
2022-09-01T10:44:33.752Z,0.30
2022-09-01T10:47:06.166Z,0.20
2022-09-01T10:50:01.259Z,0.40
2022-09-01T10:53:07.647Z,0.30
2022-09-01T10:55:44.280Z,0.43
2022-09-01T11:02:23.629Z,0.50
2022-09-01T11:05:15.194Z,0.60
2022-09-01T11:08:09.170Z,0.40
2022-09-01T11:13:37.527Z,0.30
2022-09-01T11:19:39.709Z,0.57
2022-09-01T11:22:28.675Z,0.73
2022-09-01T11:25:38.577Z,0.63
2022-09-01T11:28:35.839Z,0.32
2022-09-01T11:31:26.482Z,0.40
2022-09-01T11:34:03.264Z,0.30
2022-09-01T11:36:34.858Z,0.57
2022-09-01T11:39:09.016Z,0.52
2022-09-01T11:41:57.502Z,0.45
2022-09-01T11:44:32.462Z,0.60
2022-09-01T11:47:05.350Z,0.77
2022-09-01T11:49:35.128Z,1.00
2022-09-01T11:52:04.087Z,0.65
2022-09-01T11:54:39.720Z,0.40
2022-09-01T11:57:25.871Z,0.90
2022-09-01T11:59:53.802Z,0.80
2022-09-01T12:02:25.831Z,0.73
2022-09-01T12:04:55.415Z,0.90
2022-09-01T12:07:32.566Z,1.00
2022-09-01T12:09:59.808Z,1.17
2022-09-01T12:12:33.575Z,0.60
2022-09-01T12:15:06.701Z,0.80
2022-09-01T12:17:36.408Z,1.15
2022-09-01T12:20:28.659Z,0.90
2022-09-01T12:22:57.037Z,1.33
2022-09-01T12:25:27.875Z,1.08
2022-09-01T12:27:55.643Z,1.00
2022-09-01T12:30:24.116Z,1.05
2022-09-01T12:33:22.782Z,0.90
2022-09-01T12:35:41.707Z,0.63
2022-09-01T12:38:28.639Z,0.90
2022-09-01T12:40:57.375Z,1.50
2022-09-01T12:43:31.603Z,0.82
2022-09-01T12:46:02.876Z,0.70
2022-09-01T12:48:36.242Z,1.05
2022-09-01T12:51:09.420Z,1.98
2022-09-01T12:53:37.198Z,1.20
2022-09-01T12:56:16.625Z,2.60
2022-09-01T12:58:49.334Z,1.85
2022-09-01T13:01:29.011Z,1.25
2022-09-01T13:04:16.456Z,1.20
2022-09-01T13:06:43.782Z,0.70
2022-09-01T13:09:11.374Z,0.70
2022-09-01T13:14:26.693Z,1.05
2022-09-01T13:16:55.155Z,0.40
2022-09-01T13:19:28.796Z,0.70
2022-09-01T13:21:58.362Z,0.70
2022-09-01T13:24:30.250Z,0.90
2022-09-01T13:29:46.734Z,1.25
2022-09-01T13:32:18.851Z,1.00
2022-09-01T13:34:50.469Z,0.77
2022-09-01T13:37:19.815Z,0.90
2022-09-01T13:39:47.427Z,0.90
2022-09-01T13:42:16.269Z,0.80
2022-09-01T13:44:49.750Z,0.70
2022-09-01T13:47:28.956Z,0.85
2022-09-01T13:50:08.208Z,0.70
2022-09-01T13:52:37.430Z,0.65
2022-09-01T13:55:07.387Z,0.47
2022-09-01T13:57:36.268Z,0.40
2022-09-01T14:00:07.790Z,0.70
2022-09-01T14:02:38.345Z,0.52
2022-09-01T14:05:08.366Z,1.17
2022-09-01T14:07:35.821Z,0.75
2022-09-01T14:10:04.278Z,0.80
2022-09-01T14:12:32.707Z,1.00
2022-09-01T14:15:17.494Z,0.77
2022-09-01T14:17:49.453Z,0.47
2022-09-01T14:20:21.724Z,0.65
2022-09-01T14:22:50.750Z,0.63
2022-09-01T14:25:20.240Z,0.45
2022-09-01T14:27:48.040Z,0.50
2022-09-01T14:30:19.344Z,1.00
2022-09-01T14:32:47.572Z,0.77
2022-09-01T14:35:17.009Z,0.40
2022-09-01T14:37:45.744Z,0.40
2022-09-01T14:40:18.385Z,0.40
2022-09-01T14:42:50.359Z,1.27
2022-09-01T14:45:19.759Z,0.20
2022-09-01T14:47:47.803Z,0.90
2022-09-01T14:50:19.936Z,0.60
2022-09-01T14:52:53.975Z,0.25
2022-09-01T14:55:22.018Z,0.60
2022-09-01T14:57:50.138Z,0.40
2022-09-01T15:00:18.107Z,0.47
2022-09-01T15:02:46.886Z,0.40
2022-09-01T15:05:14.895Z,0.40
2022-09-01T15:07:42.835Z,0.40
2022-09-01T15:10:15.984Z,0.50
2022-09-01T15:12:52.874Z,0.73
2022-09-01T15:15:20.477Z,0.80
2022-09-01T15:17:47.933Z,0.90
2022-09-01T15:20:33.902Z,0.93
2022-09-01T15:23:02.118Z,0.80
2022-09-01T15:25:31.329Z,1.00
2022-09-01T15:27:58.601Z,1.20
2022-09-01T15:30:25.863Z,1.10
2022-09-01T15:32:55.018Z,1.10
2022-09-01T15:35:23.294Z,0.75
2022-09-01T15:37:52.102Z,1.40
2022-09-01T15:40:20.247Z,1.37
2022-09-01T15:42:49.213Z,1.00
2022-09-01T15:45:19.305Z,1.30
2022-09-01T15:47:48.456Z,1.02
2022-09-01T15:50:21.506Z,0.68
2022-09-01T15:52:52.754Z,0.90
2022-09-01T15:55:22.566Z,0.90
2022-09-01T15:57:55.087Z,0.65
2022-09-01T16:00:23.846Z,0.80
2022-09-01T16:02:54.542Z,0.60
2022-09-01T16:05:22.006Z,0.60
2022-09-01T16:07:51.588Z,0.77
2022-09-01T16:10:21.176Z,0.65
2022-09-01T16:12:51.895Z,0.63
2022-09-01T16:15:22.368Z,0.85
2022-09-01T16:18:18.664Z,0.70
2022-09-01T16:20:55.459Z,0.60
2022-09-01T16:23:25.371Z,0.60
2022-09-01T16:25:53.870Z,0.80
2022-09-01T16:28:28.160Z,0.75
2022-09-01T16:31:03.261Z,0.57
2022-09-01T16:33:32.663Z,1.70
2022-09-01T16:36:11.631Z,0.73
2022-09-01T16:38:44.007Z,0.80
2022-09-01T16:41:19.600Z,0.85
2022-09-01T16:43:55.635Z,0.68
2022-09-01T16:46:32.251Z,0.50
2022-09-01T16:49:10.095Z,0.90
2022-09-01T16:51:48.198Z,0.65
2022-09-01T16:54:24.959Z,1.75
2022-09-01T16:57:01.155Z,0.50
2022-09-01T16:59:39.644Z,0.57
2022-09-01T17:02:23.408Z,0.60
2022-09-01T17:05:01.138Z,0.60
2022-09-01T17:07:40.301Z,0.57
2022-09-01T17:10:16.916Z,0.60
2022-09-01T17:12:51.169Z,0.50
2022-09-01T17:15:28.219Z,0.68
2022-09-01T17:18:08.890Z,0.60
2022-09-01T17:20:42.853Z,0.50
2022-09-01T17:23:29.945Z,0.80
2022-09-01T17:26:03.169Z,0.50
2022-09-01T17:28:34.613Z,0.30
2022-09-01T17:31:14.496Z,0.30
2022-09-01T17:33:57.881Z,0.63
2022-09-01T17:36:44.639Z,0.52
2022-09-01T17:41:55.996Z,1.30
2022-09-01T17:44:31.122Z,0.40
2022-09-01T17:47:09.606Z,0.50
2022-09-01T17:49:42.182Z,0.30
2022-09-01T17:52:19.204Z,0.40
2022-09-01T17:54:57.520Z,0.38
2022-09-01T17:57:32.978Z,0.52
2022-09-01T18:00:06.478Z,0.30
2022-09-01T18:03:06.332Z,0.22
2022-09-01T18:05:39.476Z,0.50
2022-09-01T18:08:29.533Z,0.50
2022-09-01T18:11:01.153Z,0.68
2022-09-01T18:13:52.388Z,0.30
2022-09-01T18:16:25.667Z,0.40
2022-09-01T18:18:58.745Z,0.40
2022-09-01T18:21:32.546Z,0.50
2022-09-01T18:24:13.471Z,0.70
2022-09-01T18:26:43.772Z,1.75
2022-09-01T18:29:11.531Z,2.10
2022-09-01T18:32:04.076Z,1.35
2022-09-01T18:34:45.929Z,0.85
2022-09-01T18:37:24.091Z,0.60
2022-09-01T18:40:02.787Z,0.50
2022-09-01T18:42:36.708Z,0.40
2022-09-01T18:45:25.935Z,0.50
2022-09-01T18:48:04.334Z,0.40
2022-09-01T18:50:42.531Z,0.30
2022-09-01T18:53:25.171Z,0.43
2022-09-01T18:55:58.566Z,0.30
2022-09-01T18:58:43.623Z,0.30
2022-09-01T19:01:16.402Z,0.43
2022-09-01T19:03:53.190Z,0.40
2022-09-01T19:06:30.989Z,0.75
2022-09-01T19:09:10.488Z,1.50
2022-09-01T19:11:58.191Z,2.00
2022-09-01T19:14:32.090Z,4.65
2022-09-01T19:17:16.327Z,3.13
2022-09-01T19:19:49.075Z,3.45
2022-09-01T19:22:21.229Z,1.75
2022-09-01T19:24:53.846Z,1.23
2022-09-01T19:27:28.638Z,1.65
2022-09-01T19:30:04.186Z,1.15
2022-09-01T19:32:35.158Z,1.17
2022-09-01T19:35:07.965Z,2.40
2022-09-01T19:37:37.255Z,1.90
2022-09-01T19:40:06.771Z,1.60
2022-09-01T19:45:13.350Z,3.10
2022-09-01T19:47:47.539Z,2.22
2022-09-01T19:50:20.070Z,1.63
2022-09-01T19:53:00.783Z,1.27
2022-09-01T19:55:33.002Z,1.15
2022-09-01T19:58:04.848Z,0.93
2022-09-01T20:00:43.741Z,0.80
2022-09-01T20:03:20.648Z,0.73
2022-09-01T20:05:52.691Z,0.93
2022-09-01T20:08:29.474Z,0.82
2022-09-01T20:11:04.430Z,0.80
2022-09-01T20:13:59.336Z,1.00
2022-09-01T20:16:31.920Z,0.70
2022-09-01T20:19:04.717Z,1.25
2022-09-01T20:21:40.121Z,0.77
2022-09-01T20:24:17.879Z,0.50
2022-09-01T20:26:56.467Z,0.50
2022-09-01T20:29:29.954Z,1.23
2022-09-01T20:32:02.084Z,0.82
2022-09-01T20:34:38.312Z,0.80
2022-09-01T20:37:18.247Z,0.88
2022-09-01T20:42:41.706Z,1.05
2022-09-01T20:45:12.870Z,0.90
2022-09-01T20:47:40.699Z,0.75
2022-09-01T20:50:11.922Z,0.80
2022-09-01T20:52:52.683Z,0.80
2022-09-01T20:55:26.398Z,0.77
2022-09-01T20:58:00.821Z,0.77
2022-09-01T21:00:30.274Z,0.95
2022-09-01T21:03:03.893Z,0.60
2022-09-01T21:05:46.128Z,0.50
2022-09-01T21:08:39.447Z,0.60
2022-09-01T21:11:30.966Z,1.00
2022-09-01T21:14:16.517Z,0.60
2022-09-01T21:16:53.770Z,1.30
2022-09-01T21:19:29.106Z,0.85
2022-09-01T21:22:04.068Z,0.75
2022-09-01T21:24:31.548Z,0.98
2022-09-01T21:27:03.028Z,1.27
2022-09-01T21:29:46.987Z,2.10
2022-09-01T21:32:16.133Z,1.33
2022-09-01T21:34:43.935Z,0.88
2022-09-01T21:37:11.700Z,0.70
2022-09-01T21:39:38.998Z,0.80
2022-09-01T21:42:11.019Z,0.85
2022-09-01T21:44:40.028Z,0.65
2022-09-01T21:47:07.303Z,0.50
2022-09-01T21:49:34.544Z,0.40
2022-09-01T21:52:02.257Z,0.60
2022-09-01T21:54:29.477Z,0.50
2022-09-01T21:56:56.918Z,0.35
2022-09-01T21:59:25.822Z,0.50
2022-09-01T22:01:53.243Z,0.80
2022-09-01T22:04:24.483Z,0.30
2022-09-01T22:06:52.233Z,0.50
2022-09-01T22:09:21.847Z,0.40
2022-09-01T22:14:18.157Z,0.45
2022-09-01T22:16:48.114Z,0.60
2022-09-01T22:19:16.428Z,0.40
2022-09-01T22:21:44.589Z,0.50
2022-09-01T22:24:11.864Z,0.47
2022-09-01T22:26:39.805Z,0.47
2022-09-01T22:29:08.241Z,0.40
2022-09-01T22:31:37.496Z,0.50
2022-09-01T22:34:06.768Z,0.47
2022-09-01T22:36:37.020Z,1.08
2022-09-01T22:39:05.810Z,0.90
2022-09-01T22:41:34.037Z,0.50
2022-09-01T22:44:01.794Z,0.50
2022-09-01T22:46:30.059Z,0.40
2022-09-01T22:48:58.579Z,0.50
2022-09-01T22:51:27.592Z,0.35
2022-09-01T22:53:55.270Z,0.50
2022-09-01T22:56:26.252Z,0.50
2022-09-01T22:58:55.143Z,0.43
2022-09-01T23:01:27.724Z,0.40
2022-09-01T23:03:59.611Z,0.43
2022-09-01T23:06:30.777Z,0.47
2022-09-01T23:08:59.695Z,0.40
2022-09-01T23:11:28.293Z,0.30
2022-09-01T23:13:57.649Z,0.40
2022-09-01T23:18:56.833Z,0.40
2022-09-01T23:21:26.833Z,0.40
2022-09-01T23:23:58.632Z,0.20
2022-09-01T23:26:26.802Z,0.30
2022-09-01T23:28:55.282Z,0.20
2022-09-01T23:31:25.691Z,0.40
2022-09-01T23:33:53.804Z,0.40
2022-09-01T23:36:24.473Z,0.30
2022-09-01T23:38:54.148Z,0.40
2022-09-01T23:41:25.562Z,0.30
2022-09-01T23:43:54.845Z,0.40
2022-09-01T23:46:23.863Z,0.80
2022-09-01T23:48:52.353Z,0.40
2022-09-01T23:51:20.176Z,0.40
2022-09-01T23:53:48.310Z,0.50
2022-09-01T23:56:18.192Z,0.38
2022-09-01T23:58:47.357Z,0.60
